createdAt,value
2018-10-21T00:01:53.968Z,95463.64
2018-10-21T00:04:20.723Z,95462.63
2018-10-21T00:06:47.463Z,95463.02
2018-10-21T00:09:14.215Z,95460.13
2018-10-21T00:11:40.936Z,95449.53
2018-10-21T00:14:07.608Z,95459.63
2018-10-21T00:16:34.280Z,95458.62
2018-10-21T00:19:01.029Z,95463.92
2018-10-21T00:21:27.690Z,95466.83
2018-10-21T00:23:54.457Z,95464.92
2018-10-21T00:26:21.196Z,95461.77
2018-10-21T00:28:47.909Z,95457.00
2018-10-21T00:31:14.647Z,95455.36
2018-10-21T00:33:41.396Z,95453.61
2018-10-21T00:36:08.140Z,95452.73
2018-10-21T00:38:36.507Z,95453.59
2018-10-21T00:41:01.654Z,95450.81
2018-10-21T00:43:28.432Z,95450.45
2018-10-21T00:45:55.179Z,95449.44
2018-10-21T00:48:21.890Z,95444.04
2018-10-21T00:50:48.627Z,95437.58
2018-10-21T00:53:15.304Z,95438.09
2018-10-21T00:55:42.057Z,95429.39
2018-10-21T00:58:08.829Z,95430.91
2018-10-21T01:00:35.467Z,95430.42
2018-10-21T01:03:02.552Z,95432.95
2018-10-21T01:05:29.282Z,95431.05
2018-10-21T01:07:56.030Z,95438.62
2018-10-21T01:10:22.896Z,95431.42
2018-10-21T01:12:51.753Z,95423.62
2018-10-21T01:15:16.423Z,95423.70
2018-10-21T01:17:43.131Z,95415.53
2018-10-21T01:20:09.860Z,95420.45
2018-10-21T01:22:36.564Z,95418.17
2018-10-21T01:25:03.344Z,95416.66
2018-10-21T01:27:31.348Z,95412.77
2018-10-21T01:29:56.781Z,95408.86
2018-10-21T01:32:23.565Z,95409.23
2018-10-21T01:34:50.234Z,95406.20
2018-10-21T01:37:17.002Z,95412.13
2018-10-21T01:39:43.651Z,95407.98
2018-10-21T01:42:10.400Z,95402.67
2018-10-21T01:44:37.055Z,95402.58
2018-10-21T01:47:03.797Z,95401.44
2018-10-21T01:49:34.019Z,95396.52
2018-10-21T01:52:00.788Z,95389.59
2018-10-21T01:54:27.445Z,95390.45
2018-10-21T01:56:56.310Z,95387.06
2018-10-21T01:59:20.938Z,95388.57
2018-10-21T02:01:47.717Z,95379.39
2018-10-21T02:04:14.456Z,95381.52
2018-10-21T02:06:41.261Z,95387.97
2018-10-21T02:09:07.967Z,95386.06
2018-10-21T02:11:34.683Z,95375.63
2018-10-21T02:14:01.546Z,95377.26
2018-10-21T02:16:28.333Z,95372.83
2018-10-21T02:18:56.337Z,95371.45
2018-10-21T02:21:21.713Z,95370.45
2018-10-21T02:23:48.450Z,95368.57
2018-10-21T02:26:15.233Z,95375.48
2018-10-21T02:28:43.107Z,95385.19
2018-10-21T02:31:08.710Z,95375.00
2018-10-21T02:33:35.470Z,95378.02
2018-10-21T02:36:02.190Z,95383.95
2018-10-21T02:38:28.921Z,95378.52
2018-10-21T02:40:55.597Z,95378.66
2018-10-21T02:43:22.320Z,95377.14
2018-10-21T02:45:50.224Z,95383.20
2018-10-21T02:48:15.752Z,95378.16
2018-10-21T02:50:45.728Z,95383.95
2018-10-21T02:53:12.442Z,95378.41
2018-10-21T02:55:39.149Z,95382.94
2018-10-21T02:58:05.823Z,95391.16
2018-10-21T03:00:33.925Z,95392.41
2018-10-21T03:02:59.333Z,95397.72
2018-10-21T03:05:25.986Z,95393.80
2018-10-21T03:07:54.052Z,95390.78
2018-10-21T03:10:19.429Z,95395.30
2018-10-21T03:12:46.127Z,95389.64
2018-10-21T03:15:13.005Z,95392.16
2018-10-21T03:17:40.828Z,95393.44
2018-10-21T03:20:06.452Z,95399.09
2018-10-21T03:22:33.185Z,95398.98
2018-10-21T03:24:59.946Z,95391.78
2018-10-21T03:27:26.696Z,95396.56
2018-10-21T03:29:53.453Z,95383.09
2018-10-21T03:32:20.138Z,95376.30
2018-10-21T03:34:46.873Z,95378.68
2018-10-21T03:37:13.649Z,95386.25
2018-10-21T03:39:40.349Z,95388.02
2018-10-21T03:42:07.102Z,95384.25
2018-10-21T03:44:33.783Z,95388.13
2018-10-21T03:47:00.487Z,95388.89
2018-10-21T03:49:27.227Z,95386.50
2018-10-21T03:51:53.932Z,95384.11
2018-10-21T03:54:20.647Z,95385.99
2018-10-21T03:56:48.102Z,95380.06
2018-10-21T03:59:14.958Z,95378.31
2018-10-21T04:01:41.643Z,95380.20
2018-10-21T04:04:08.431Z,95375.42
2018-10-21T04:06:35.057Z,95380.70
2018-10-21T04:09:01.806Z,95383.86
2018-10-21T04:11:29.899Z,95384.63
2018-10-21T04:13:55.231Z,95389.30
2018-10-21T04:16:21.943Z,95386.77
2018-10-21T04:18:48.620Z,95384.63
2018-10-21T04:21:15.333Z,95386.02
2018-10-21T04:23:42.168Z,95382.97
2018-10-21T04:26:08.843Z,95383.49
2018-10-21T04:28:35.650Z,95374.94
2018-10-21T04:31:02.343Z,95372.66
2018-10-21T04:33:29.076Z,95367.48
2018-10-21T04:35:55.807Z,95368.36
2018-10-21T04:38:22.597Z,95362.44
2018-10-21T04:40:49.403Z,95359.56
2018-10-21T04:43:16.110Z,95363.34
2018-10-21T04:45:42.878Z,95365.35
2018-10-21T04:48:09.594Z,95367.11
2018-10-21T04:50:36.272Z,95366.87
2018-10-21T04:53:03.008Z,95357.42
2018-10-21T04:55:29.771Z,95362.20
2018-10-21T04:57:56.443Z,95363.98
2018-10-21T05:00:23.120Z,95357.30
2018-10-21T05:02:49.836Z,95364.73
2018-10-21T05:05:16.504Z,95363.98
2018-10-21T05:07:43.294Z,95362.21
2018-10-21T05:10:10.017Z,95365.74
2018-10-21T05:12:36.641Z,95364.36
2018-10-21T05:15:04.341Z,95364.22
2018-10-21T05:17:31.073Z,95361.45
2018-10-21T05:19:57.754Z,95365.48
2018-10-21T05:22:24.516Z,95368.63
2018-10-21T05:24:51.182Z,95366.37
2018-10-21T05:27:18.006Z,95364.08
2018-10-21T05:29:46.627Z,95363.22
2018-10-21T05:32:15.345Z,95367.75
2018-10-21T05:34:40.037Z,95368.63
2018-10-21T05:37:06.764Z,95366.61
2018-10-21T05:39:38.068Z,95367.99
2018-10-21T05:42:03.433Z,95367.23
2018-10-21T05:44:30.186Z,95369.63
2018-10-21T05:46:56.966Z,95373.52
2018-10-21T05:49:23.689Z,95375.57
2018-10-21T05:51:50.369Z,95381.73
2018-10-21T05:54:17.137Z,95383.22
2018-10-21T05:56:43.927Z,95382.75
2018-10-21T05:59:10.722Z,95388.55
2018-10-21T06:01:37.392Z,95388.28
2018-10-21T06:04:04.117Z,95384.38
2018-10-21T06:06:33.582Z,95391.67
2018-10-21T06:09:00.295Z,95395.45
2018-10-21T06:11:26.977Z,95393.33
2018-10-21T06:13:53.793Z,95392.56
2018-10-21T06:16:20.823Z,95385.77
2018-10-21T06:18:47.365Z,95383.76
2018-10-21T06:21:14.121Z,95387.66
2018-10-21T06:23:40.837Z,95383.87
2018-10-21T06:26:07.535Z,95392.55
2018-10-21T06:28:34.260Z,95393.05
2018-10-21T06:31:00.946Z,95395.47
2018-10-21T06:33:27.703Z,95390.55
2018-10-21T06:35:54.431Z,95397.36
2018-10-21T06:38:21.153Z,95388.77
2018-10-21T06:40:48.056Z,95393.70
2018-10-21T06:43:14.733Z,95397.86
2018-10-21T06:45:41.488Z,95393.17
2018-10-21T06:48:09.474Z,95392.06
2018-10-21T06:50:38.321Z,95395.97
2018-10-21T06:53:05.125Z,95396.98
2018-10-21T06:55:31.800Z,95391.92
2018-10-21T06:57:58.541Z,95394.55
2018-10-21T07:00:25.214Z,95399.88
2018-10-21T07:02:51.950Z,95395.70
2018-10-21T07:05:18.619Z,95398.22
2018-10-21T07:07:45.367Z,95400.84
2018-10-21T07:10:12.188Z,95403.39
2018-10-21T07:12:38.824Z,95392.78
2018-10-21T07:15:05.583Z,95400.73
2018-10-21T07:17:32.231Z,95401.98
2018-10-21T07:19:59.016Z,95402.11
2018-10-21T07:22:25.747Z,95404.88
2018-10-21T07:24:54.233Z,95404.39
2018-10-21T07:27:19.241Z,95408.80
2018-10-21T07:29:45.916Z,95408.03
2018-10-21T07:32:12.590Z,95412.06
2018-10-21T07:34:39.335Z,95405.27
2018-10-21T07:37:06.073Z,95402.24
2018-10-21T07:39:32.763Z,95404.23
2018-10-21T07:41:59.439Z,95396.56
2018-10-21T07:44:26.294Z,95398.32
2018-10-21T07:46:55.468Z,95395.55
2018-10-21T07:49:22.233Z,95398.59
2018-10-21T07:51:48.969Z,95397.05
2018-10-21T07:54:15.641Z,95402.08
2018-10-21T07:56:42.474Z,95398.94
2018-10-21T07:59:09.143Z,95395.27
2018-10-21T08:01:36.822Z,95400.57
2018-10-21T08:04:03.635Z,95402.84
2018-10-21T08:06:33.711Z,95403.45
2018-10-21T08:09:00.388Z,95399.93
2018-10-21T08:11:27.137Z,95400.56
2018-10-21T08:13:53.896Z,95401.94
2018-10-21T08:16:20.602Z,95402.20
2018-10-21T08:18:47.336Z,95407.48
2018-10-21T08:21:14.036Z,95406.84
2018-10-21T08:23:40.684Z,95400.27
2018-10-21T08:26:07.443Z,95406.61
2018-10-21T08:28:34.218Z,95405.48
2018-10-21T08:31:02.202Z,95401.45
2018-10-21T08:33:27.675Z,95398.53
2018-10-21T08:35:54.488Z,95394.75
2018-10-21T08:38:21.102Z,95390.95
2018-10-21T08:40:47.944Z,95392.21
2018-10-21T08:43:14.628Z,95387.66
2018-10-21T08:45:44.044Z,95392.72
2018-10-21T08:48:10.826Z,95392.58
2018-10-21T08:50:37.504Z,95391.56
2018-10-21T08:53:04.305Z,95394.72
2018-10-21T08:55:30.983Z,95386.61
2018-10-21T08:57:57.721Z,95391.66
2018-10-21T09:00:24.474Z,95394.80
2018-10-21T09:02:51.281Z,95392.27
2018-10-21T09:05:17.979Z,95392.90
2018-10-21T09:07:47.660Z,95389.72
2018-10-21T09:10:14.464Z,95390.73
2018-10-21T09:12:42.383Z,95389.45
2018-10-21T09:15:11.192Z,95389.97
2018-10-21T09:17:37.913Z,95387.19
2018-10-21T09:20:04.563Z,95390.08
2018-10-21T09:22:31.328Z,95392.59
2018-10-21T09:24:58.077Z,95387.30
2018-10-21T09:27:24.706Z,95383.63
2018-10-21T09:29:51.383Z,95382.85
2018-10-21T09:32:18.114Z,95374.91
2018-10-21T09:34:44.923Z,95377.42
2018-10-21T09:37:11.670Z,95377.30
2018-10-21T09:39:39.500Z,95371.37
2018-10-21T09:42:05.062Z,95368.09
2018-10-21T09:44:33.386Z,95365.55
2018-10-21T09:46:58.493Z,95364.27
2018-10-21T09:49:25.269Z,95363.11
2018-10-21T09:51:51.900Z,95360.33
2018-10-21T09:54:18.705Z,95359.17
2018-10-21T09:56:47.251Z,95351.23
2018-10-21T09:59:12.568Z,95347.31
2018-10-21T10:01:39.309Z,95348.42
2018-10-21T10:04:06.093Z,95346.43
2018-10-21T10:06:32.803Z,95343.91
2018-10-21T10:08:59.474Z,95332.92
2018-10-21T10:11:26.151Z,95338.08
2018-10-21T10:13:52.955Z,95339.59
2018-10-21T10:16:22.928Z,95335.91
2018-10-21T10:18:49.742Z,95325.45
2018-10-21T10:21:16.379Z,95328.46
2018-10-21T10:23:43.207Z,95326.42
2018-10-21T10:26:11.347Z,95319.47
2018-10-21T10:28:36.655Z,95318.82
2018-10-21T10:31:03.403Z,95309.70
2018-10-21T10:33:30.039Z,95312.61
2018-10-21T10:35:56.808Z,95310.21
2018-10-21T10:38:23.441Z,95302.48
2018-10-21T10:40:50.751Z,95307.16
2018-10-21T10:43:17.477Z,95307.03
2018-10-21T10:45:44.269Z,95307.16
2018-10-21T10:48:10.949Z,95293.77
2018-10-21T10:50:37.746Z,95297.30
2018-10-21T10:53:07.315Z,95294.91
2018-10-21T10:55:33.985Z,95298.31
2018-10-21T10:58:00.745Z,95301.50
2018-10-21T11:00:27.453Z,95303.27
2018-10-21T11:02:54.173Z,95300.97
2018-10-21T11:05:20.911Z,95298.16
2018-10-21T11:07:47.635Z,95309.94
2018-10-21T11:10:14.465Z,95304.73
2018-10-21T11:12:41.692Z,95303.37
2018-10-21T11:15:11.068Z,95296.80
2018-10-21T11:17:37.738Z,95304.88
2018-10-21T11:20:07.239Z,95297.94
2018-10-21T11:22:33.980Z,95294.66
2018-10-21T11:25:03.089Z,95294.27
2018-10-21T11:27:30.746Z,95293.77
2018-10-21T11:29:57.467Z,95303.88
2018-10-21T11:32:24.256Z,95304.27
2018-10-21T11:34:50.998Z,95300.74
2018-10-21T11:37:17.800Z,95303.27
2018-10-21T11:39:44.487Z,95296.34
2018-10-21T11:42:11.186Z,95302.63
2018-10-21T11:44:37.925Z,95298.59
2018-10-21T11:47:04.606Z,95306.06
2018-10-21T11:49:31.354Z,95302.16
2018-10-21T11:52:01.452Z,95297.48
2018-10-21T11:54:28.181Z,95297.77
2018-10-21T11:56:54.981Z,95298.77
2018-10-21T11:59:21.624Z,95298.24
2018-10-21T12:01:48.515Z,95302.97
2018-10-21T12:04:15.317Z,95303.19
2018-10-21T12:06:42.046Z,95306.34
2018-10-21T12:09:08.736Z,95309.58
2018-10-21T12:11:35.520Z,95312.45
2018-10-21T12:14:03.499Z,95319.27
2018-10-21T12:16:30.024Z,95315.94
2018-10-21T12:18:55.805Z,95318.99
2018-10-21T12:21:22.475Z,95323.19
2018-10-21T12:23:49.222Z,95324.70
2018-10-21T12:26:15.906Z,95319.24
2018-10-21T12:28:42.699Z,95321.28
2018-10-21T12:31:09.470Z,95322.53
2018-10-21T12:33:36.078Z,95317.02
2018-10-21T12:36:02.774Z,95316.27
2018-10-21T12:38:29.631Z,95321.44
2018-10-21T12:40:57.699Z,95323.71
2018-10-21T12:43:26.181Z,95320.94
2018-10-21T12:45:54.285Z,95319.14
2018-10-21T12:48:19.647Z,95322.47
2018-10-21T12:50:46.310Z,95322.98
2018-10-21T12:53:13.099Z,95323.08
2018-10-21T12:55:39.779Z,95328.42
2018-10-21T12:58:06.573Z,95333.32
2018-10-21T13:00:33.247Z,95325.52
2018-10-21T13:03:04.351Z,95329.52
2018-10-21T13:05:32.017Z,95337.89
2018-10-21T13:07:56.698Z,95339.66
2018-10-21T13:10:23.447Z,95344.05
2018-10-21T13:12:50.143Z,95343.56
2018-10-21T13:15:16.943Z,95348.61
2018-10-21T13:17:43.613Z,95343.42
2018-10-21T13:20:10.464Z,95342.83
2018-10-21T13:22:37.149Z,95336.91
2018-10-21T13:25:03.940Z,95338.41
2018-10-21T13:27:30.753Z,95334.00
2018-10-21T13:29:57.471Z,95334.89
2018-10-21T13:32:24.330Z,95335.78
2018-10-21T13:34:51.000Z,95333.28
2018-10-21T13:37:17.837Z,95343.84
2018-10-21T13:39:44.550Z,95342.62
2018-10-21T13:42:11.232Z,95345.38
2018-10-21T13:44:37.964Z,95343.12
2018-10-21T13:47:04.931Z,95348.67
2018-10-21T13:49:34.864Z,95341.38
2018-10-21T13:52:01.792Z,95350.19
2018-10-21T13:54:28.343Z,95349.94
2018-10-21T13:56:55.006Z,95351.70
2018-10-21T13:59:21.808Z,95347.05
2018-10-21T14:01:48.535Z,95346.70
2018-10-21T14:04:15.279Z,95350.21
2018-10-21T14:06:42.112Z,95351.22
2018-10-21T14:09:08.905Z,95352.75
2018-10-21T14:11:35.585Z,95349.95
2018-10-21T14:14:03.896Z,95352.84
2018-10-21T14:16:29.121Z,95351.86
2018-10-21T14:18:55.745Z,95353.63
2018-10-21T14:21:22.489Z,95354.27
2018-10-21T14:23:49.182Z,95349.46
2018-10-21T14:26:16.044Z,95354.53
2018-10-21T14:28:42.703Z,95360.47
2018-10-21T14:31:09.609Z,95361.38
2018-10-21T14:33:36.262Z,95358.34
2018-10-21T14:36:02.979Z,95366.56
2018-10-21T14:38:29.716Z,95355.68
2018-10-21T14:40:56.368Z,95362.24
2018-10-21T14:43:24.429Z,95361.38
2018-10-21T14:45:49.855Z,95365.41
2018-10-21T14:48:16.591Z,95371.46
2018-10-21T14:50:43.233Z,95368.34
2018-10-21T14:53:11.122Z,95371.21
2018-10-21T14:55:36.724Z,95364.92
2018-10-21T14:58:03.499Z,95370.97
2018-10-21T15:00:30.306Z,95371.34
2018-10-21T15:02:56.880Z,95363.67
2018-10-21T15:05:26.223Z,95375.41
2018-10-21T15:07:52.886Z,95379.06
2018-10-21T15:10:19.679Z,95391.80
2018-10-21T15:12:46.344Z,95388.27
2018-10-21T15:15:13.239Z,95391.83
2018-10-21T15:17:41.243Z,95391.69
2018-10-21T15:20:06.673Z,95391.69
2018-10-21T15:22:33.402Z,95393.98
2018-10-21T15:25:01.219Z,95399.64
2018-10-21T15:27:27.896Z,95401.16
2018-10-21T15:29:54.598Z,95407.34
2018-10-21T15:32:21.321Z,95403.44
2018-10-21T15:34:48.070Z,95406.84
2018-10-21T15:37:14.811Z,95416.39
2018-10-21T15:39:43.286Z,95417.31
2018-10-21T15:42:08.292Z,95417.67
2018-10-21T15:44:34.986Z,95427.87
2018-10-21T15:47:01.666Z,95429.52
2018-10-21T15:49:28.513Z,95437.84
2018-10-21T15:51:55.289Z,95440.13
2018-10-21T15:54:21.985Z,95441.01
2018-10-21T15:56:48.691Z,95441.90
2018-10-21T15:59:15.373Z,95445.56
2018-10-21T16:01:42.177Z,95448.56
2018-10-21T16:04:08.908Z,95453.36
2018-10-21T16:06:35.979Z,95450.34
2018-10-21T16:09:02.740Z,95456.14
2018-10-21T16:11:29.429Z,95462.70
2018-10-21T16:13:56.226Z,95461.95
2018-10-21T16:16:22.839Z,95460.32
2018-10-21T16:18:49.601Z,95462.33
2018-10-21T16:21:16.413Z,95468.02
2018-10-21T16:23:43.198Z,95471.91
2018-10-21T16:26:10.012Z,95481.11
2018-10-21T16:28:36.605Z,95485.77
2018-10-21T16:31:03.347Z,95480.99
2018-10-21T16:33:30.142Z,95489.69
2018-10-21T16:35:56.811Z,95487.41
2018-10-21T16:38:23.582Z,95493.34
2018-10-21T16:40:50.818Z,95494.24
2018-10-21T16:43:20.380Z,95495.50
2018-10-21T16:45:49.929Z,95499.52
2018-10-21T16:48:16.702Z,95494.60
2018-10-21T16:50:43.440Z,95496.00
2018-10-21T16:53:10.270Z,95502.06
2018-10-21T16:55:36.902Z,95499.91
2018-10-21T16:58:03.585Z,95502.31
2018-10-21T17:00:30.558Z,95497.89
2018-10-21T17:02:57.180Z,95500.30
2018-10-21T17:05:27.142Z,95499.54
2018-10-21T17:07:53.906Z,95498.27
2018-10-21T17:10:21.052Z,95501.66
2018-10-21T17:12:47.471Z,95507.98
2018-10-21T17:15:14.116Z,95506.83
2018-10-21T17:17:40.832Z,95512.28
2018-10-21T17:20:07.491Z,95518.44
2018-10-21T17:22:34.224Z,95517.44
2018-10-21T17:25:04.143Z,95516.17
2018-10-21T17:27:30.882Z,95510.64
2018-10-21T17:29:57.698Z,95509.75
2018-10-21T17:32:24.384Z,95511.01
2018-10-21T17:34:51.112Z,95508.23
2018-10-21T17:37:17.946Z,95508.23
2018-10-21T17:39:47.831Z,95504.31
2018-10-21T17:42:15.678Z,95505.95
2018-10-21T17:44:42.453Z,95511.02
2018-10-21T17:47:09.211Z,95504.70
2018-10-21T17:49:35.888Z,95508.73
2018-10-21T17:52:02.716Z,95507.73
2018-10-21T17:54:31.379Z,95506.20
2018-10-21T17:56:58.147Z,95511.51
2018-10-21T17:59:24.978Z,95511.13
2018-10-21T18:01:51.700Z,95518.44
2018-10-21T18:04:18.560Z,95515.05
2018-10-21T18:06:45.268Z,95512.25
2018-10-21T18:09:12.062Z,95518.06
2018-10-21T18:11:38.820Z,95523.47
2018-10-21T18:14:05.555Z,95522.71
2018-10-21T18:16:32.376Z,95518.30
2018-10-21T18:18:59.181Z,95520.45
2018-10-21T18:21:25.873Z,95525.73
2018-10-21T18:23:52.574Z,95523.23
2018-10-21T18:26:19.407Z,95527.12
2018-10-21T18:28:46.096Z,95523.09
2018-10-21T18:31:13.007Z,95523.34
2018-10-21T18:33:39.593Z,95524.86
2018-10-21T18:36:06.501Z,95531.66
2018-10-21T18:38:33.400Z,95539.97
2018-10-21T18:41:00.333Z,95538.70
2018-10-21T18:43:26.884Z,95539.33
2018-10-21T18:45:53.653Z,95538.21
2018-10-21T18:48:20.341Z,95543.89
2018-10-21T18:50:47.045Z,95541.98
2018-10-21T18:53:17.043Z,95540.60
2018-10-21T18:55:43.751Z,95546.25
2018-10-21T18:58:10.567Z,95546.01
2018-10-21T19:00:37.174Z,95543.63
2018-10-21T19:03:04.050Z,95551.17
2018-10-21T19:05:30.826Z,95544.77
2018-10-21T19:07:57.468Z,95548.78
2018-10-21T19:10:24.300Z,95557.48
2018-10-21T19:13:00.050Z,95557.48
2018-10-21T19:15:17.881Z,95560.01
2018-10-21T19:17:44.565Z,95567.81
2018-10-21T19:20:11.360Z,95563.78
2018-10-21T19:22:38.178Z,95570.58
2018-10-21T19:25:08.141Z,95576.88
2018-10-21T19:27:34.781Z,95575.50
2018-10-21T19:30:01.461Z,95574.59
2018-10-21T19:32:28.201Z,95577.89
2018-10-21T19:34:54.886Z,95579.52
2018-10-21T19:37:21.739Z,95580.77
2018-10-21T19:39:50.374Z,95577.89
2018-10-21T19:42:17.129Z,95578.89
2018-10-21T19:44:43.855Z,95576.50
2018-10-21T19:47:11.953Z,95583.30
2018-10-21T19:49:37.317Z,95580.14
2018-10-21T19:52:04.073Z,95581.02
2018-10-21T19:54:30.710Z,95588.95
2018-10-21T19:56:57.584Z,95590.33
2018-10-21T19:59:26.339Z,95590.47
2018-10-21T20:01:50.999Z,95591.61
2018-10-21T20:04:17.875Z,95590.71
2018-10-21T20:06:44.618Z,95589.84
2018-10-21T20:09:11.323Z,95593.10
2018-10-21T20:11:38.041Z,95592.23
2018-10-21T20:14:04.727Z,95583.16
2018-10-21T20:16:32.620Z,95592.23
2018-10-21T20:18:58.319Z,95588.45
2018-10-21T20:21:24.984Z,95583.92
2018-10-21T20:23:51.762Z,95584.16
2018-10-21T20:26:18.499Z,95581.77
2018-10-21T20:28:45.229Z,95584.78
2018-10-21T20:31:11.919Z,95586.80
2018-10-21T20:33:38.659Z,95594.97
2018-10-21T20:36:05.341Z,95595.35
2018-10-21T20:38:32.177Z,95596.36
2018-10-21T20:40:58.873Z,95597.11
2018-10-21T20:43:25.609Z,95598.13
2018-10-21T20:45:52.354Z,95600.65
2018-10-21T20:48:20.417Z,95600.89
2018-10-21T20:50:48.888Z,95602.03
2018-10-21T20:53:15.566Z,95604.53
2018-10-21T20:55:42.298Z,95605.88
2018-10-21T20:58:09.028Z,95597.88
2018-10-21T21:00:35.725Z,95597.19
2018-10-21T21:03:02.397Z,95599.20
2018-10-21T21:05:29.700Z,95601.48
2018-10-21T21:07:56.458Z,95592.16
2018-10-21T21:10:23.149Z,95588.12
2018-10-21T21:12:49.959Z,95600.34
2018-10-21T21:15:18.273Z,95597.95
2018-10-21T21:17:43.355Z,95594.80
2018-10-21T21:20:10.179Z,95598.70
2018-10-21T21:22:36.906Z,95591.64
2018-10-21T21:25:03.684Z,95590.36
2018-10-21T21:27:31.808Z,95594.17
2018-10-21T21:29:57.204Z,95587.86
2018-10-21T21:32:23.863Z,95598.05
2018-10-21T21:34:50.644Z,95595.42
2018-10-21T21:37:17.382Z,95597.29
2018-10-21T21:39:44.072Z,95593.41
2018-10-21T21:42:10.876Z,95595.03
2018-10-21T21:44:37.550Z,95596.42
2018-10-21T21:47:04.282Z,95590.22
2018-10-21T21:49:30.997Z,95594.79
2018-10-21T21:51:57.666Z,95593.78
2018-10-21T21:54:24.464Z,95600.06
2018-10-21T21:56:51.230Z,95595.91
2018-10-21T21:59:18.032Z,95595.03
2018-10-21T22:01:44.733Z,95594.89
2018-10-21T22:04:13.889Z,95589.84
2018-10-21T22:06:40.583Z,95587.34
2018-10-21T22:09:07.339Z,95586.58
2018-10-21T22:11:34.107Z,95584.44
2018-10-21T22:14:00.949Z,95586.69
2018-10-21T22:16:27.628Z,95576.61
2018-10-21T22:18:54.409Z,95580.90
2018-10-21T22:21:21.046Z,95581.14
2018-10-21T22:23:49.092Z,95583.81
2018-10-21T22:26:15.821Z,95578.75
2018-10-21T22:28:42.553Z,95579.65
2018-10-21T22:31:09.231Z,95585.81
2018-10-21T22:33:35.905Z,95589.20
2018-10-21T22:36:05.911Z,95587.30
2018-10-21T22:38:32.550Z,95582.04
2018-10-21T22:40:59.221Z,95582.03
2018-10-21T22:43:25.979Z,95585.05
2018-10-21T22:45:52.708Z,95587.68
2018-10-21T22:48:20.715Z,95587.58
2018-10-21T22:50:46.151Z,95595.89
2018-10-21T22:53:12.818Z,95588.96
2018-10-21T22:55:39.703Z,95597.38
2018-10-21T22:58:06.469Z,95599.52
2018-10-21T23:00:33.158Z,95598.52
2018-10-21T23:02:59.850Z,95597.51
2018-10-21T23:05:29.816Z,95599.24
2018-10-21T23:07:56.575Z,95599.52
2018-10-21T23:10:23.291Z,95600.66
2018-10-21T23:12:49.955Z,95601.91
2018-10-21T23:15:16.726Z,95598.00
2018-10-21T23:17:45.688Z,95597.75
2018-10-21T23:20:12.666Z,95597.23
2018-10-21T23:22:39.482Z,95594.59
2018-10-21T23:25:06.211Z,95597.62
2018-10-21T23:27:32.854Z,95601.14
2018-10-21T23:29:59.842Z,95603.77
2018-10-21T23:32:26.589Z,95606.67
2018-10-21T23:34:53.265Z,95609.45
2018-10-21T23:37:19.982Z,95603.91
2018-10-21T23:39:46.720Z,95607.45
2018-10-21T23:42:13.451Z,95613.98
2018-10-21T23:44:40.083Z,95602.67
2018-10-21T23:47:06.833Z,95604.78
2018-10-21T23:49:33.575Z,95602.91
2018-10-21T23:52:00.419Z,95602.91
2018-10-21T23:54:27.159Z,95594.97
2018-10-21T23:56:53.834Z,95603.39
2018-10-21T23:59:20.565Z,95595.70
